Time;durP1;ratioP1;P1;durP2;ratioP2;P2;SDS_P1;SDS_P2;PMS_P1;PMS_P2;Temp;Humidity;BMP_temperature;BMP_pressure;BME280_temperature;BME280_humidity;BME280_pressure;Samples;Min_cycle;Max_cycle;Signal;HPM_P1;HPM_P2
2022/04/02 00:01:16;;;;;;;4.60;2.58;;;;;;;1.79;80.49;66980.28;5003841;28;20033;-84
2022/04/02 00:03:42;;;;;;;3.28;1.70;;;;;;;;;;5011457;28;20057;-85
2022/04/02 00:06:07;;;;;;;3.72;2.13;;;;;;;1.79;80.77;66979.72;5006797;28;20160;-85
2022/04/02 00:08:34;;;;;;;5.72;2.30;;;;;;;1.75;79.72;66972.59;5006881;28;20116;-85
2022/04/02 00:11:00;;;;;;;5.55;2.47;;;;;;;1.75;80.59;66972.59;5000393;28;20038;-86
2022/04/02 00:13:25;;;;;;;4.32;2.60;;;;;;;1.77;80.55;66977.47;5007337;28;20116;-85
2022/04/02 00:19:12;;;;;;;4.35;2.40;;;;;;;1.72;80.67;66969.22;4999302;28;20532;-85
2022/04/02 00:21:38;;;;;;;6.47;2.25;;;;;;;1.69;80.16;66969.03;5004902;28;20066;-85
2022/04/02 00:24:04;;;;;;;5.43;2.60;;;;;;;1.71;80.74;66968.09;4999171;28;20121;-85
2022/04/02 00:26:29;;;;;;;3.53;1.80;;;;;;;;;;5003007;28;20069;-85
2022/04/02 00:28:55;;;;;;;4.35;1.83;;;;;;;1.63;79.36;66961.72;4997429;28;20058;-85
2022/04/02 00:31:21;;;;;;;4.25;2.22;;;;;;;1.68;80.38;66967.34;5002444;28;20045;-85
2022/04/02 00:33:48;;;;;;;4.93;2.20;;;;;;;1.68;80.72;66965.28;4986787;28;20061;-84
2022/04/02 00:36:14;;;;;;;4.18;2.13;;;;;;;1.68;79.55;66965.28;4988703;28;20065;-86
2022/04/02 00:38:40;;;;;;;3.95;2.40;;;;;;;1.71;78.14;66973.91;4987804;28;20042;-85
2022/04/02 00:41:07;;;;;;;5.05;2.80;;;;;;;;;;5003300;28;20049;-85
2022/04/02 00:43:35;;;;;;;3.67;2.10;;;;;;;1.74;77.94;66971.47;5002520;28;20070;-85
2022/04/02 00:46:12;;;;;;;3.70;2.30;;;;;;;1.72;77.59;66974.47;4992765;28;20042;-86
2022/04/02 00:48:39;;;;;;;3.90;2.28;;;;;;;1.75;80.06;66975.22;5000955;28;20049;-86
2022/04/02 00:51:06;;;;;;;5.55;2.70;;;;;;;1.73;79.56;66975.59;5001171;28;20042;-85
2022/04/02 00:53:37;;;;;;;4.45;2.33;;;;;;;1.73;79.34;66975.59;4985355;28;20050;-85
2022/04/02 00:56:04;;;;;;;4.45;2.25;;;;;;;1.72;77.78;66975.03;5001322;28;20042;-85
2022/04/02 00:58:30;;;;;;;4.43;2.60;;;;;;;1.73;77.78;66975.59;5000830;28;20049;-85
2022/04/02 01:00:55;;;;;;;3.42;2.10;;;;;;;1.73;76.97;66975.59;4985543;28;20042;-85
2022/04/02 01:03:21;;;;;;;4.45;2.33;;;;;;;1.76;76.82;66976.91;4980749;28;20050;-86
2022/04/02 01:05:47;;;;;;;4.03;2.33;;;;;;;;;;5004067;28;20042;-86
2022/04/02 01:08:12;;;;;;;5.03;2.58;;;;;;;1.72;76.28;66969.22;4998676;28;20133;-86
2022/04/02 01:10:41;;;;;;;4.25;2.25;;;;;;;1.74;77.99;66976.72;5003053;28;20720;-86
2022/04/02 01:13:08;;;;;;;3.58;2.25;;;;;;;1.72;77.23;66969.22;5000555;28;20644;-85
2022/04/02 01:15:34;;;;;;;3.75;2.30;;;;;;;1.69;78.01;66966.41;4987578;28;20849;-85
2022/04/02 01:17:59;;;;;;;4.05;2.50;;;;;;;1.71;77.93;66973.34;5000178;28;20184;-86
2022/04/02 01:20:27;;;;;;;6.55;2.58;;;;;;;1.71;78.33;66968.66;5005195;28;20129;-85
2022/04/02 01:22:53;;;;;;;5.82;2.35;;;;;;;1.69;78.51;66971.09;5001744;28;20335;-85
2022/04/02 01:25:19;;;;;;;3.72;1.90;;;;;;;1.68;77.34;66969.97;4999276;28;20085;-85
2022/04/02 01:27:46;;;;;;;3.90;2.20;;;;;;;1.67;77.00;66964.16;4981701;28;20823;-85
2022/04/02 01:30:13;;;;;;;3.05;1.90;;;;;;;1.67;76.47;66968.81;4986903;28;20648;-85
2022/04/02 01:32:39;;;;;;;3.17;2.03;;;;;;;1.66;76.47;66965.09;4983831;28;20041;-85
2022/04/02 01:35:05;;;;;;;4.22;2.17;;;;;;;1.69;76.23;66971.09;5017623;28;20038;-85
2022/04/02 01:37:31;;;;;;;3.40;2.10;;;;;;;1.67;74.75;66964.16;5013291;28;20112;-85
2022/04/02 01:39:56;;;;;;;5.13;1.95;;;;;;;1.67;75.73;66966.19;5033015;28;20140;-86
2022/04/02 01:42:24;;;;;;;4.22;1.90;;;;;;;1.66;75.33;66965.09;5022800;28;20041;-86
2022/04/02 01:44:51;;;;;;;4.13;2.08;;;;;;;1.70;73.68;66969.59;5020112;28;20041;-86
2022/04/02 01:47:21;;;;;;;3.88;1.90;;;;;;;1.69;74.01;66965.84;5006961;28;20080;-86
2022/04/02 01:49:48;;;;;;;4.20;2.00;;;;;;;1.69;73.16;66965.84;5009238;28;20042;-85
2022/04/02 01:52:18;;;;;;;3.10;2.00;;;;;;;1.70;73.82;66972.78;5028068;28;20045;-85
2022/04/02 01:54:44;;;;;;;3.30;1.50;;;;;;;1.70;73.88;66972.22;5010148;28;20045;-85
2022/04/02 01:57:10;;;;;;;4.60;1.88;;;;;;;1.69;73.01;66965.84;5008777;28;20053;-85
2022/04/02 01:59:36;;;;;;;4.22;1.88;;;;;;;1.70;71.50;66972.22;5026634;28;20103;-85
2022/04/02 02:02:01;;;;;;;3.97;1.80;;;;;;;1.70;69.52;66966.97;5009398;28;20049;-85
2022/04/02 02:04:28;;;;;;;2.90;1.48;;;;;;;1.72;70.40;66971.84;5027454;28;20041;-85
2022/04/02 02:06:53;;;;;;;3.13;1.52;;;;;;;1.71;70.70;66971.28;5027267;28;20470;-85
2022/04/02 02:09:19;;;;;;;5.40;1.50;;;;;;;1.69;69.54;66969.03;5010991;28;20099;-86
2022/04/02 02:11:44;;;;;;;3.13;1.70;;;;;;;1.70;69.22;66966.97;5028540;28;20048;-85
2022/04/02 02:14:10;;;;;;;2.65;1.60;;;;;;;1.70;68.83;66969.59;5009963;28;20045;-85
2022/04/02 02:16:35;;;;;;;3.30;1.80;;;;;;;1.71;68.83;66975.97;5008791;28;20508;-85
2022/04/02 02:19:00;;;;;;;3.33;1.70;;;;;;;1.70;69.22;66972.22;5025918;28;20052;-84
2022/04/02 02:21:26;;;;;;;3.95;1.73;;;;;;;1.67;69.28;66968.81;5006525;28;20030;-85
2022/04/02 02:23:52;;;;;;;2.90;1.70;;;;;;;1.65;70.73;66964.53;5027578;28;20044;-85
2022/04/02 02:26:17;;;;;;;2.97;1.60;;;;;;;1.61;70.63;66959.44;5009309;28;20041;-85
2022/04/02 02:28:43;;;;;;;3.05;1.80;;;;;;;1.61;71.29;66956.81;5009744;28;20033;-84
2022/04/02 02:31:08;;;;;;;2.88;1.60;;;;;;;1.55;70.54;66953.84;5019788;28;20048;-84
2022/04/02 02:36:18;;;;;;;3.35;1.90;;;;;;;1.53;71.38;66948.97;5007966;28;20504;-85
2022/04/02 02:38:44;;;;;;;2.92;1.63;;;;;;;1.53;71.65;66948.97;5008336;28;20045;-85
2022/04/02 02:41:10;;;;;;;2.60;1.38;;;;;;;1.54;72.18;66954.75;5026467;28;20087;-85
2022/04/02 02:43:36;;;;;;;4.38;1.92;;;;;;;1.50;71.31;66945.56;5009493;28;20050;-85
2022/04/02 02:46:02;;;;;;;5.40;1.80;;;;;;;1.50;71.20;66950.25;5009202;28;20037;-85
2022/04/02 02:48:28;;;;;;;4.57;1.73;;;;;;;1.52;72.59;66949.88;5026414;28;20429;-85
2022/04/02 02:50:53;;;;;;;2.78;1.58;;;;;;;1.49;70.31;66949.69;5027276;28;20041;-85
2022/04/02 02:53:18;;;;;;;2.70;1.55;;;;;;;1.52;71.88;66952.50;5026207;28;20103;-85
2022/04/02 02:55:44;;;;;;;3.65;1.88;;;;;;;;;;5010401;28;20364;-85
2022/04/02 02:58:10;;;;;;;2.72;1.75;;;;;;;1.49;70.60;66947.06;5024913;28;20061;-85
2022/04/02 03:00:35;;;;;;;2.25;1.38;;;;;;;1.52;71.30;66952.50;5009815;28;20413;-85
2022/04/02 03:03:01;;;;;;;2.47;1.65;;;;;;;1.50;70.55;66947.63;5008678;28;20041;-85
2022/04/02 03:05:26;;;;;;;2.83;1.50;;;;;;;1.52;70.89;66949.88;5028003;28;20038;-85
2022/04/02 03:07:52;;;;;;;3.03;1.70;;;;;;;1.51;70.89;66949.31;5023081;28;20037;-85
2022/04/02 03:10:19;;;;;;;4.00;1.70;;;;;;;1.50;69.67;66950.81;4999985;22;20397;-86
2022/04/02 03:12:46;;;;;;;2.45;1.48;;;;;;;1.51;69.59;66951.94;4993710;28;20616;-86
2022/04/02 03:15:13;;;;;;;3.03;1.77;;;;;;;1.54;70.75;66955.31;5011640;28;20045;-86
2022/04/02 03:17:39;;;;;;;3.10;1.90;;;;;;;1.52;70.13;66947.25;5009257;28;20073;-86
2022/04/02 03:20:05;;;;;;;4.55;1.35;;;;;;;1.52;69.15;66950.44;5007422;28;20046;-86
2022/04/02 03:22:35;;;;;;;4.78;2.10;;;;;;;1.55;68.45;66950.63;5006602;28;20705;-85
2022/04/02 03:25:01;;;;;;;;;;;;;;;1.55;69.90;66956.47;4988440;28;20050;-86
2022/04/02 03:27:26;;;;;;;3.47;1.70;;;;;;;1.45;69.81;66939.94;5005074;28;19918;-85
2022/04/02 03:29:51;;;;;;;2.80;1.58;;;;;;;1.49;69.63;66944.44;4996596;28;20052;-85
2022/04/02 03:32:17;;;;;;;2.70;1.52;;;;;;;1.51;69.72;66946.69;4990535;28;20384;-85
2022/04/02 03:34:42;;;;;;;2.95;1.92;;;;;;;1.53;69.01;66948.97;4994160;28;20042;-86
2022/04/02 03:37:08;;;;;;;3.60;1.85;;;;;;;1.57;69.78;66958.69;5009825;28;20046;-85
2022/04/02 03:39:33;;;;;;;4.88;1.90;;;;;;;1.57;70.65;66956.06;5011499;28;20042;-85
2022/04/02 03:41:58;;;;;;;3.33;1.73;;;;;;;1.57;71.02;66955.50;4991993;28;20041;-85
2022/04/02 03:44:24;;;;;;;5.07;1.58;;;;;;;1.55;71.17;66956.47;4993729;28;20050;-86
2022/04/02 03:49:33;;;;;;;3.65;1.52;;;;;;;1.53;71.84;66951.03;4977377;28;20138;-85
2022/04/02 03:51:58;;;;;;;4.32;1.98;;;;;;;1.53;69.15;66948.41;5009058;28;20094;-86
2022/04/02 03:54:24;;;;;;;3.00;1.88;;;;;;;1.54;70.18;66955.31;4990872;28;20740;-85
2022/04/02 03:56:49;;;;;;;3.72;1.90;;;;;;;1.55;70.10;66953.84;4994168;28;20034;-86
2022/04/02 03:59:14;;;;;;;3.05;1.80;;;;;;;1.56;70.54;66954.41;5007912;28;20050;-87
2022/04/02 04:01:40;;;;;;;3.90;2.05;;;;;;;1.55;69.92;66955.88;4988306;28;20105;-86
2022/04/02 04:04:05;;;;;;;3.75;1.58;;;;;;;1.53;71.03;66951.56;5004070;28;20038;-86
2022/04/02 04:06:34;;;;;;;3.35;1.75;;;;;;;1.56;71.53;66957.56;5004736;28;20509;-86
2022/04/02 04:09:00;;;;;;;3.88;2.17;;;;;;;1.54;72.13;66952.69;5008773;28;20079;-86
2022/04/02 04:11:26;;;;;;;3.78;1.83;;;;;;;1.54;72.15;66952.13;4992328;28;20038;-86
2022/04/02 04:13:52;;;;;;;3.78;2.20;;;;;;;1.53;72.59;66951.56;4992230;28;20038;-85
2022/04/02 04:16:17;;;;;;;3.45;2.00;;;;;;;1.49;71.56;66947.06;4997553;28;20034;-86
2022/04/02 04:18:43;;;;;;;4.30;2.33;;;;;;;1.50;71.26;66945.56;5011355;28;20417;-86
2022/04/02 04:21:08;;;;;;;3.20;2.00;;;;;;;1.54;71.60;66952.69;4991631;28;20131;-85
2022/04/02 04:23:34;;;;;;;3.72;1.92;;;;;;;1.51;71.25;66946.69;4991647;28;21025;-85
2022/04/02 04:26:00;;;;;;;3.63;2.10;;;;;;;1.51;72.64;66946.69;5009014;28;20042;-85
2022/04/02 04:28:26;;;;;;;5.05;2.40;;;;;;;1.49;73.90;66943.88;4990278;28;20518;-85
2022/04/02 04:30:51;;;;;;;4.75;2.40;;;;;;;1.51;73.39;66949.31;5007506;28;20042;-85
2022/04/02 04:33:16;;;;;;;6.13;2.60;;;;;;;1.48;73.59;66945.94;5008922;28;20037;-85
2022/04/02 04:35:42;;;;;;;4.55;2.20;;;;;;;1.47;72.83;66947.44;5007934;28;20057;-85
2022/04/02 04:38:07;;;;;;;3.20;1.98;;;;;;;;;;5006741;28;20080;-85
2022/04/02 04:40:33;;;;;;;3.35;1.75;;;;;;;1.46;72.88;66941.06;4990876;28;20076;-86
2022/04/02 04:42:58;;;;;;;3.17;1.73;;;;;;;1.46;72.16;66941.06;5006749;28;20081;-85
2022/04/02 04:45:24;;;;;;;4.57;1.80;;;;;;;1.46;71.26;66945.75;5008366;28;20048;-85
2022/04/02 04:47:49;;;;;;;3.05;1.95;;;;;;;1.48;70.64;66948.56;4989439;28;20042;-85
2022/04/02 04:50:15;;;;;;;3.60;1.73;;;;;;;1.47;70.97;66946.88;4989626;28;20045;-85
2022/04/02 04:52:40;;;;;;;3.67;1.60;;;;;;;1.47;69.11;66941.66;4990612;28;20397;-85
2022/04/02 04:55:06;;;;;;;2.70;1.70;;;;;;;1.48;69.14;66948.56;4988972;28;20066;-85
2022/04/02 04:57:32;;;;;;;6.07;2.00;;;;;;;;;;4991111;28;20042;-86
2022/04/02 04:59:57;;;;;;;3.35;1.92;;;;;;;1.51;69.57;66951.38;5012363;28;20145;-85
2022/04/02 05:02:22;;;;;;;4.13;1.83;;;;;;;1.50;70.88;66945.03;4993770;28;20412;-85
2022/04/02 05:04:49;;;;;;;4.15;2.17;;;;;;;1.49;70.32;66947.06;5012628;28;20906;-85
2022/04/02 05:07:15;;;;;;;3.15;1.75;;;;;;;1.51;70.39;66949.31;4993555;28;20058;-85
2022/04/02 05:09:42;;;;;;;4.38;2.25;;;;;;;1.50;70.58;66948.19;4993709;28;20041;-85
2022/04/02 05:12:10;;;;;;;6.60;2.00;;;;;;;1.50;70.13;66945.56;5010754;28;20088;-85
2022/04/02 05:14:35;;;;;;;3.22;1.67;;;;;;;1.52;70.75;66950.44;5012200;28;20042;-85
2022/04/02 05:17:01;;;;;;;3.53;1.83;;;;;;;1.50;70.53;66945.56;4991173;28;20552;-85
2022/04/02 05:19:27;;;;;;;3.58;1.80;;;;;;;1.51;71.70;66951.94;5003453;28;20412;-86
2022/04/02 05:21:53;;;;;;;4.35;2.20;;;;;;;1.48;71.27;66942.75;5009554;28;20040;-85
2022/04/02 05:24:18;;;;;;;3.60;1.90;;;;;;;;;;5002169;28;20091;-87
2022/04/02 05:26:47;;;;;;;4.38;2.00;;;;;;;1.49;71.76;66944.44;4989847;28;20046;-87
2022/04/02 05:29:15;;;;;;;4.25;2.25;;;;;;;1.48;73.26;66942.75;4991380;28;20046;-88
2022/04/02 05:31:41;;;;;;;3.50;2.05;;;;;;;1.45;73.28;66944.63;4988518;28;20045;-88
2022/04/02 05:34:07;;;;;;;5.53;2.10;;;;;;;1.41;74.10;66934.88;4988941;28;20100;-87
2022/04/02 05:36:33;;;;;;;3.95;2.20;;;;;;;1.41;74.73;66942.72;4990257;28;20038;-89
2022/04/02 05:38:58;;;;;;;3.53;2.40;;;;;;;1.36;75.21;66932.44;4993702;28;20044;-87
2022/04/02 05:41:24;;;;;;;3.92;2.60;;;;;;;1.38;75.77;66932.06;4990187;28;20417;-87
2022/04/02 05:43:49;;;;;;;4.40;2.97;;;;;;;1.34;76.99;66928.13;4991096;28;20053;-87
2022/04/02 05:46:16;;;;;;;6.60;3.38;;;;;;;1.34;78.14;66927.56;4990945;28;20034;-87
2022/04/02 05:48:42;;;;;;;5.18;3.47;;;;;;;1.30;78.93;66933.56;4988781;28;20050;-87
2022/04/02 05:51:08;;;;;;;6.80;3.30;;;;;;;1.27;79.84;66925.50;4987588;28;20041;-87
2022/04/02 05:53:33;;;;;;;5.93;3.42;;;;;;;1.24;80.31;66924.75;4989318;28;20065;-86
2022/04/02 05:55:59;;;;;;;6.53;3.70;;;;;;;1.28;80.67;66920.81;5006384;28;20492;-86
2022/04/02 05:58:25;;;;;;;11.27;4.00;;;;;;;1.28;81.16;66926.06;4989188;28;20057;-87
2022/04/02 06:00:50;;;;;;;6.13;3.90;;;;;;;1.27;82.27;66925.50;4989379;28;20038;-87
2022/04/02 06:03:16;;;;;;;6.05;3.80;;;;;;;1.28;82.69;66923.44;4989142;28;20037;-87
2022/04/02 06:05:41;;;;;;;7.28;4.35;;;;;;;;;;5008229;28;20042;-87
2022/04/02 06:08:07;;;;;;;8.70;4.03;;;;;;;1.25;83.23;66917.44;4989874;28;20077;-86
2022/04/02 06:10:32;;;;;;;6.68;3.83;;;;;;;1.26;83.38;66918.56;4991409;28;20056;-87
2022/04/02 06:12:58;;;;;;;5.82;4.30;;;;;;;1.25;83.55;66917.44;4989852;28;20030;-86
2022/04/02 06:15:24;;;;;;;8.35;4.63;;;;;;;1.22;83.79;66914.06;4991463;28;20104;-87
2022/04/02 06:17:51;;;;;;;6.20;3.72;;;;;;;1.20;84.24;66914.41;4989588;28;20042;-86
2022/04/02 06:20:17;;;;;;;6.82;4.47;;;;;;;1.21;84.43;66915.53;4988306;28;20133;-86
2022/04/02 06:22:42;;;;;;;6.93;4.70;;;;;;;1.21;84.54;66915.53;4991126;28;20122;-86
2022/04/02 06:25:08;;;;;;;8.90;5.00;;;;;;;1.18;85.08;66912.75;4990082;28;20109;-87
2022/04/02 06:27:44;;;;;;;8.27;6.15;;;;;;;1.18;85.61;66915.38;4989773;28;20041;-86
2022/04/02 06:30:12;;;;;;;10.93;6.07;;;;;;;1.21;86.26;66918.75;5005717;28;20579;-87
2022/04/02 06:32:38;;;;;;;8.18;5.43;;;;;;;1.20;86.26;66917.59;4992777;28;20119;-86
2022/04/02 06:35:04;;;;;;;8.13;5.38;;;;;;;1.18;87.44;66910.13;4989197;28;20036;-87
2022/04/02 06:37:34;;;;;;;7.75;5.80;;;;;;;1.19;87.54;66910.69;4989799;28;20052;-86
2022/04/02 06:40:00;;;;;;;7.78;5.50;;;;;;;1.19;87.54;66915.91;4990438;28;20044;-87
2022/04/02 06:42:25;;;;;;;7.65;5.65;;;;;;;1.15;88.03;66914.03;5007670;28;20133;-87
2022/04/02 06:44:50;;;;;;;8.38;4.72;;;;;;;1.10;88.75;66906.34;4993265;28;20489;-87
2022/04/02 06:47:16;;;;;;;7.30;5.40;;;;;;;1.12;89.36;66903.34;4988616;28;20045;-87
2022/04/02 06:49:41;;;;;;;10.40;6.78;;;;;;;1.10;89.50;66909.53;4988119;28;20130;-88
2022/04/02 06:52:07;;;;;;;10.35;5.82;;;;;;;1.16;90.07;66907.31;4989759;28;20065;-87
2022/04/02 06:54:33;;;;;;;11.57;6.97;;;;;;;1.12;90.00;66909.16;4989417;28;20136;-89
2022/04/02 06:56:59;;;;;;;13.00;8.38;;;;;;;1.18;90.55;66912.16;4989512;28;20497;-89
2022/04/02 06:59:24;;;;;;;9.73;6.68;;;;;;;1.20;91.34;66914.41;4984586;28;20053;-88
2022/04/02 07:01:50;;;;;;;10.43;6.28;;;;;;;1.12;92.59;66903.94;5007696;28;20046;-87
2022/04/02 07:04:15;;;;;;;7.63;6.10;;;;;;;;;;4985410;28;20046;-88
2022/04/02 07:06:44;;;;;;;9.35;6.72;;;;;;;1.12;92.80;66911.78;4989495;28;20129;-88
2022/04/02 07:09:11;;;;;;;9.05;6.40;;;;;;;1.16;93.11;66910.47;5005424;28;20099;-88
2022/04/02 07:11:37;;;;;;;8.68;6.60;;;;;;;1.16;93.13;66907.31;4992071;28;20061;-86
2022/04/02 07:14:02;;;;;;;10.13;6.32;;;;;;;1.19;94.20;66913.31;5003731;28;20107;-88
2022/04/02 07:16:28;;;;;;;9.98;7.13;;;;;;;1.22;93.83;66916.69;4989338;28;20111;-88
2022/04/02 07:18:55;;;;;;;9.90;6.60;;;;;;;1.24;94.08;66916.88;4989615;28;20493;-88
2022/04/02 07:21:25;;;;;;;9.07;6.32;;;;;;;1.29;94.13;66927.16;5006267;28;20077;-88
2022/04/02 07:23:52;;;;;;;8.80;5.97;;;;;;;1.36;93.85;66932.44;4990487;28;20042;-88
2022/04/02 07:26:18;;;;;;;10.13;7.57;;;;;;;1.33;93.99;66927.00;4989411;28;20038;-88
2022/04/02 07:28:45;;;;;;;11.20;6.82;;;;;;;1.36;94.35;66932.44;5003044;28;20042;-88
2022/04/02 07:31:10;;;;;;;9.32;6.72;;;;;;;1.39;95.45;66940.50;4989240;28;20663;-88
2022/04/02 07:33:36;;;;;;;13.13;7.53;;;;;;;1.38;94.98;66932.06;4995002;28;20161;-88
2022/04/02 07:36:09;;;;;;;11.95;7.55;;;;;;;1.37;94.86;66930.38;4992360;28;20136;-88
2022/04/02 07:38:44;;;;;;;12.13;7.65;;;;;;;;;;4984542;28;20075;-88
2022/04/02 07:41:20;;;;;;;13.45;8.15;;;;;;;1.42;95.60;66939.19;4987092;28;20088;-88
2022/04/02 07:44:01;;;;;;;10.48;7.90;;;;;;;1.48;95.38;66948.00;4993987;28;20054;-89
2022/04/02 07:46:30;;;;;;;11.02;8.20;;;;;;;1.48;95.72;66945.38;5008157;28;20116;-88
2022/04/02 07:48:57;;;;;;;11.60;7.20;;;;;;;1.54;95.71;66952.69;4991940;28;20058;-88
2022/04/02 07:51:24;;;;;;;8.82;7.32;;;;;;;1.47;95.40;66941.66;5010655;28;20038;-88
2022/04/02 07:53:54;;;;;;;10.13;6.68;;;;;;;1.51;97.00;66951.94;4954720;28;20356;-88
2022/04/02 07:56:36;;;;;;;10.32;7.32;;;;;;;1.61;95.81;66959.44;4969336;28;20122;-88
2022/04/02 07:59:07;;;;;;;15.43;11.27;;;;;;;1.61;95.41;66960.00;4966615;28;20054;-88
2022/04/02 08:01:32;;;;;;;11.10;8.93;;;;;;;1.61;95.46;66962.06;4958987;28;20694;-88
2022/04/02 08:04:03;;;;;;;10.57;7.50;;;;;;;1.66;94.89;66965.09;4970630;28;20137;-88
2022/04/02 08:06:31;;;;;;;14.65;10.07;;;;;;;1.56;94.60;66952.34;4984135;28;20042;-88
2022/04/02 08:08:58;;;;;;;13.50;9.70;;;;;;;1.60;95.16;66960.94;4969407;28;20108;-88
2022/04/02 08:11:25;;;;;;;10.02;6.97;;;;;;;1.64;94.55;66962.81;4971198;28;20673;-88
2022/04/02 08:13:52;;;;;;;12.27;9.05;;;;;;;1.76;94.67;66978.97;4965626;28;20065;-87
2022/04/02 08:16:19;;;;;;;9.48;7.28;;;;;;;1.85;93.43;66989.13;4971747;28;20049;-87
2022/04/02 08:18:47;;;;;;;19.48;14.25;;;;;;;1.92;93.55;66994.34;4977636;28;20064;-86
2022/04/02 08:21:13;;;;;;;13.43;9.45;;;;;;;1.99;93.09;67004.88;4992447;28;20501;-87
2022/04/02 08:23:39;;;;;;;10.93;8.68;;;;;;;2.05;91.74;67011.06;4993230;28;20073;-87
2022/04/02 08:26:42;;;;;;;10.15;6.50;;;;;;;2.08;90.85;67009.22;4995513;28;20525;-87
2022/04/02 08:29:29;;;;;;;9.02;6.32;;;;;;;2.19;91.21;67021.59;4985638;28;20450;-87
2022/04/02 08:31:56;;;;;;;7.85;6.20;;;;;;;2.28;90.51;67031.19;4999857;28;20520;-87
2022/04/02 08:34:49;;;;;;;9.50;6.18;;;;;;;2.38;89.96;67045.06;4993536;28;20453;-87
2022/04/02 08:37:29;;;;;;;9.43;5.95;;;;;;;2.38;88.87;67042.44;4991861;28;20053;-87
2022/04/02 08:40:06;;;;;;;9.15;5.80;;;;;;;2.47;88.88;67052.59;4992926;28;20100;-87
2022/04/02 08:42:52;;;;;;;7.57;5.90;;;;;;;2.51;87.38;67059.16;4975933;28;20042;-87
2022/04/02 08:45:29;;;;;;;8.18;5.43;;;;;;;2.62;87.74;67074.19;5010061;28;20045;-86
2022/04/02 08:48:03;;;;;;;8.77;6.00;;;;;;;;;;4992234;28;20042;-87
2022/04/02 08:50:31;;;;;;;8.60;5.75;;;;;;;2.84;86.98;67093.16;5009683;28;20057;-87
2022/04/02 08:53:22;;;;;;;8.60;5.07;;;;;;;2.90;85.96;67101.97;4992603;28;20037;-87
2022/04/02 08:56:01;;;;;;;7.88;6.07;;;;;;;2.94;85.73;67107.06;4964090;28;20053;-87
2022/04/02 08:58:56;;;;;;;8.75;5.60;;;;;;;3.08;84.04;67124.91;4988047;28;20044;-87
2022/04/02 09:01:27;;;;;;;7.70;5.22;;;;;;;3.11;83.53;67125.66;5007382;28;20077;-87
2022/04/02 09:04:08;;;;;;;8.50;5.25;;;;;;;;;;4991990;28;20054;-87
2022/04/02 09:07:07;;;;;;;7.00;5.22;;;;;;;3.14;82.03;67125.84;4955025;28;20048;-87
2022/04/02 09:09:48;;;;;;;6.65;5.28;;;;;;;3.25;81.76;67142.94;4941895;28;20046;-87
2022/04/02 09:12:27;;;;;;;7.88;4.55;;;;;;;3.21;80.04;67133.75;4987591;28;20033;-86
2022/04/02 09:14:53;;;;;;;7.65;4.88;;;;;;;;;;5006644;28;20046;-86
2022/04/02 09:17:36;;;;;;;7.05;4.60;;;;;;;3.25;79.95;67140.91;4989696;28;20068;-87
2022/04/02 09:20:39;;;;;;;7.78;4.68;;;;;;;3.36;79.20;67150.66;4980836;28;20046;-86
2022/04/02 09:23:09;;;;;;;6.88;5.25;;;;;;;3.43;79.55;67162.69;4990434;28;20048;-87
2022/04/02 09:25:50;;;;;;;10.93;4.68;;;;;;;3.48;80.05;67165.69;5006068;28;20054;-87
2022/04/02 09:28:27;;;;;;;7.20;4.20;;;;;;;3.58;79.19;67176.97;5004962;28;20456;-87
2022/04/02 09:31:21;;;;;;;6.32;4.50;;;;;;;3.57;78.91;67173.22;4981086;28;20056;-87
2022/04/02 09:34:01;;;;;;;7.03;3.95;;;;;;;;;;5004577;28;20563;-87
2022/04/02 09:36:49;;;;;;;6.93;4.55;;;;;;;3.67;77.27;67189.75;4989491;28;20069;-87
2022/04/02 09:39:38;;;;;;;8.35;4.65;;;;;;;3.81;77.09;67202.38;4984301;28;20128;-88
2022/04/02 09:42:22;;;;;;;;;;;;;;;3.93;76.76;67213.25;4981644;28;20054;-87
2022/04/02 09:45:12;;;;;;;7.97;4.28;;;;;;;3.88;77.34;67212.31;5007869;28;20462;-88
2022/04/02 09:48:15;;;;;;;7.00;4.10;;;;;;;3.92;75.63;67214.78;4987257;28;20046;-88
2022/04/02 09:50:42;;;;;;;6.22;4.05;;;;;;;3.97;73.91;67222.47;4970308;28;20065;-87
2022/04/02 09:53:24;;;;;;;6.05;3.97;;;;;;;4.00;73.96;67225.84;4979320;28;20050;-88
2022/04/02 09:55:53;;;;;;;7.05;4.30;;;;;;;;;;4998964;28;20041;-88
2022/04/02 10:32:08;;;;;;;6.55;4.30;;;;;;;5.12;64.98;67339.53;4979425;28;20073;-88
2022/04/02 10:35:07;;;;;;;6.70;4.18;;;;;;;4.73;60.55;67303.94;4977911;28;20608;-89
2022/04/02 10:38:06;;;;;;;4.28;3.00;;;;;;;5.12;65.35;67344.81;4943688;28;20711;-88
2022/04/02 10:40:52;;;;;;;6.10;3.13;;;;;;;5.41;61.66;67377.00;4927124;28;20049;-88
2022/04/02 10:43:27;;;;;;;3.85;2.88;;;;;;;5.48;63.41;67386.97;4945591;28;20108;-88
2022/04/02 10:45:53;;;;;;;4.10;2.70;;;;;;;5.50;61.51;67388.69;4913399;29;20127;-87
2022/04/02 10:48:27;;;;;;;4.78;2.60;;;;;;;5.47;57.08;67377.94;4906828;29;20035;-88
2022/04/02 10:50:54;;;;;;;3.70;2.20;;;;;;;5.62;58.81;67400.16;4921245;28;20038;-87
2022/04/02 10:53:22;;;;;;;3.00;1.95;;;;;;;5.67;56.43;67405.25;4933321;28;20142;-88
2022/04/02 10:55:52;;;;;;;3.38;2.13;;;;;;;;;;4934626;28;20047;-88
2022/04/02 10:58:21;;;;;;;5.25;2.47;;;;;;;5.72;58.09;67405.03;4926200;29;20518;-88
2022/04/02 11:00:47;;;;;;;3.95;2.20;;;;;;;5.78;56.46;67417.09;4907975;29;20130;-87
2022/04/02 11:03:28;;;;;;;3.80;1.92;;;;;;;6.02;56.09;67446.91;4922744;28;20058;-87
2022/04/02 11:05:53;;;;;;;4.18;1.77;;;;;;;;;;4932977;29;20054;-88
2022/04/02 11:08:22;;;;;;;3.38;2.05;;;;;;;6.08;54.77;67453.69;4958443;28;20047;-88
2022/04/02 11:10:48;;;;;;;;;;;;;;;;;;4990009;28;20038;-88
2022/04/02 11:13:27;;;;;;;3.05;1.92;;;;;;;5.71;57.08;67409.19;4994120;28;19920;-88
2022/04/02 11:15:52;;;;;;;;;;;;;;;;;;4998722;28;20218;-89
2022/04/02 11:18:18;;;;;;;4.57;2.17;;;;;;;5.76;58.86;67414.84;4989868;28;19973;-88
2022/04/02 11:20:44;;;;;;;4.18;2.28;;;;;;;;;;5009927;28;20052;-88
2022/04/02 11:23:13;;;;;;;3.60;2.17;;;;;;;5.58;55.95;67395.66;4990594;28;20060;-89
2022/04/02 11:25:39;;;;;;;;;;;;;;;;;;4992111;28;20423;-89
2022/04/02 11:28:05;;;;;;;3.20;1.80;;;;;;;5.46;58.04;67382.06;5006516;28;19913;-89
2022/04/02 11:30:46;;;;;;;12.63;3.20;;;;;;;5.71;56.57;67403.91;4990670;28;20497;-87
2022/04/02 11:33:14;;;;;;;2.90;2.13;;;;;;;5.85;55.76;67425.03;4996154;28;20042;-87
2022/04/02 11:35:52;;;;;;;4.13;2.03;;;;;;;5.77;54.72;67419.19;5004852;28;20037;-87
2022/04/02 11:38:21;;;;;;;2.97;1.92;;;;;;;;;;4985270;28;20038;-88
2022/04/02 11:41:03;;;;;;;3.95;2.00;;;;;;;6.10;56.12;67447.47;4984736;28;20301;-87
2022/04/02 11:43:32;;;;;;;3.60;2.35;;;;;;;6.25;56.40;67463.84;4986135;28;20091;-88
2022/04/02 11:46:00;;;;;;;3.45;2.10;;;;;;;6.15;54.20;67457.81;4993531;28;20038;-88
2022/04/02 11:48:31;;;;;;;3.15;1.73;;;;;;;5.72;50.34;67410.31;4990017;28;20049;-87
2022/04/02 11:50:56;;;;;;;5.95;2.00;;;;;;;;;;5003544;28;20049;-87
2022/04/02 11:53:28;;;;;;;2.85;1.80;;;;;;;;;;4985993;28;20034;-87
2022/04/02 11:55:54;;;;;;;3.92;1.92;;;;;;;5.56;54.10;67393.38;4987801;28;20052;-87
2022/04/02 11:58:19;;;;;;;3.42;1.65;;;;;;;5.62;55.95;67399.59;5006614;28;20806;-87
2022/04/02 12:00:44;;;;;;;3.00;1.60;;;;;;;;;;4989281;28;20555;-87
2022/04/02 12:03:24;;;;;;;2.42;1.80;;;;;;;5.55;53.68;67392.25;4963478;28;20134;-87
2022/04/02 12:05:50;;;;;;;;;;;;;;;5.66;55.26;67404.66;4958945;28;20132;-87
2022/04/02 12:08:31;;;;;;;3.30;1.85;;;;;;;;;;4967022;28;20009;-87
2022/04/02 12:10:58;;;;;;;4.35;1.98;;;;;;;6.10;52.80;67452.75;4982903;28;20046;-85
2022/04/02 12:13:24;;;;;;;4.60;1.60;;;;;;;;;;4983104;28;20041;-86
2022/04/02 12:16:13;;;;;;;2.80;1.60;;;;;;;;;;4964127;28;20039;-85
2022/04/02 12:18:57;;;;;;;2.60;1.70;;;;;;;6.68;50.57;67516.63;4963745;28;20687;-87
2022/04/02 12:21:40;;;;;;;7.93;1.77;;;;;;;6.75;49.62;67525.09;4984476;28;20054;-87
2022/04/02 12:24:05;;;;;;;5.13;1.75;;;;;;;6.60;52.97;67508.16;4969567;28;20038;-87
2022/04/02 12:26:31;;;;;;;3.05;1.75;;;;;;;6.95;51.23;67549.25;4968981;28;20052;-86
2022/04/02 12:29:00;;;;;;;4.25;1.70;;;;;;;;;;4984853;28;20037;-86
2022/04/02 12:31:27;;;;;;;4.10;1.80;;;;;;;7.12;50.00;67565.84;4993875;28;20046;-87
2022/04/02 12:33:54;;;;;;;2.47;1.70;;;;;;;7.33;50.84;67588.47;4993182;28;20041;-87
2022/04/02 12:36:34;;;;;;;5.70;1.75;;;;;;;7.39;47.37;67598.47;5009142;28;20512;-86
2022/04/02 12:39:06;;;;;;;2.67;1.73;;;;;;;;;;5009007;28;20041;-87
2022/04/02 12:41:32;;;;;;;3.13;1.63;;;;;;;7.08;53.56;67561.31;4991810;28;20868;-86
2022/04/02 12:44:05;;;;;;;2.50;1.60;;;;;;;6.97;52.75;67548.88;4993029;28;20132;-87
2022/04/02 12:46:30;;;;;;;3.72;1.60;;;;;;;;;;5006347;28;20045;-86
2022/04/02 12:48:57;;;;;;;3.80;1.95;;;;;;;6.72;53.95;67521.72;4988796;28;20100;-86
2022/04/02 12:51:25;;;;;;;4.55;2.33;;;;;;;;;;5004684;28;20116;-86